createdAt,value
2022-09-06T00:01:16.063Z,3.95
2022-09-06T00:03:42.961Z,4.28
2022-09-06T00:06:19.468Z,3.95
2022-09-06T00:08:47.808Z,4.10
2022-09-06T00:11:15.398Z,4.18
2022-09-06T00:13:42.644Z,4.10
2022-09-06T00:16:12.991Z,4.10
2022-09-06T00:18:39.729Z,3.90
2022-09-06T00:21:16.066Z,4.22
2022-09-06T00:23:42.641Z,4.05
2022-09-06T00:26:09.187Z,3.80
2022-09-06T00:28:35.747Z,3.80
2022-09-06T00:31:20.425Z,3.55
2022-09-06T00:33:47.008Z,4.03
2022-09-06T00:36:14.228Z,4.03
2022-09-06T00:38:41.629Z,4.15
2022-09-06T00:41:10.553Z,3.88
2022-09-06T00:43:37.538Z,3.95
2022-09-06T00:46:06.001Z,3.72
2022-09-06T00:48:33.238Z,4.03
2022-09-06T00:51:02.875Z,4.38
2022-09-06T00:53:31.002Z,3.72
2022-09-06T00:55:57.877Z,3.65
2022-09-06T00:58:25.398Z,3.78
2022-09-06T01:00:51.964Z,3.42
2022-09-06T01:03:19.520Z,3.30
2022-09-06T01:06:10.094Z,3.65
2022-09-06T01:08:48.831Z,3.10
2022-09-06T01:11:46.408Z,3.50
2022-09-06T01:14:51.556Z,3.40
2022-09-06T01:17:41.926Z,4.32
2022-09-06T01:20:34.330Z,3.50
2022-09-06T01:23:28.823Z,4.03
2022-09-06T01:26:20.649Z,4.07
2022-09-06T01:28:48.310Z,3.80
2022-09-06T01:31:48.297Z,3.63
2022-09-06T01:34:24.182Z,3.60
2022-09-06T01:37:09.474Z,3.30
2022-09-06T01:39:37.898Z,3.38
2022-09-06T01:42:12.116Z,3.42
2022-09-06T01:44:43.758Z,3.10
2022-09-06T01:47:35.495Z,3.17
2022-09-06T01:50:16.869Z,3.15
2022-09-06T01:53:04.034Z,2.78
2022-09-06T01:55:39.204Z,3.08
2022-09-06T01:58:05.614Z,3.08
2022-09-06T02:00:40.610Z,2.60
2022-09-06T02:03:31.577Z,2.72
2022-09-06T02:06:09.391Z,2.50
2022-09-06T02:08:41.754Z,2.83
2022-09-06T02:11:09.370Z,2.80
2022-09-06T02:13:49.916Z,3.03
2022-09-06T02:16:21.385Z,3.30
2022-09-06T02:18:53.972Z,3.50
2022-09-06T02:21:30.342Z,3.30
2022-09-06T02:24:00.537Z,3.30
2022-09-06T02:26:30.503Z,3.22
2022-09-06T02:28:57.601Z,3.50
2022-09-06T02:31:30.354Z,3.05
2022-09-06T02:33:57.557Z,3.35
2022-09-06T02:36:24.544Z,3.45
2022-09-06T02:38:51.654Z,3.63
2022-09-06T02:41:22.613Z,3.83
2022-09-06T02:43:49.213Z,3.38
2022-09-06T02:46:16.601Z,2.95
2022-09-06T02:48:43.143Z,3.35
2022-09-06T02:51:10.061Z,3.28
2022-09-06T02:53:36.721Z,3.22
2022-09-06T02:56:03.692Z,3.40
2022-09-06T02:58:30.251Z,3.60
2022-09-06T03:00:56.814Z,3.20
2022-09-06T03:03:23.734Z,3.20
2022-09-06T03:05:53.288Z,3.30
2022-09-06T03:08:21.474Z,3.10
2022-09-06T03:10:56.183Z,3.70
2022-09-06T03:13:23.877Z,3.55
2022-09-06T03:15:52.536Z,3.28
2022-09-06T03:18:19.416Z,3.53
2022-09-06T03:20:46.058Z,3.47
2022-09-06T03:23:13.537Z,3.90
2022-09-06T03:25:40.056Z,3.65
2022-09-06T03:28:06.523Z,3.88
2022-09-06T03:30:33.065Z,3.95
2022-09-06T03:33:02.584Z,4.25
2022-09-06T03:35:29.577Z,3.83
2022-09-06T03:37:56.049Z,3.70
2022-09-06T03:40:22.604Z,3.90
2022-09-06T03:42:49.033Z,3.97
2022-09-06T03:45:16.741Z,4.20
2022-09-06T03:47:43.151Z,3.75
2022-09-06T03:50:09.914Z,3.80
2022-09-06T03:52:36.406Z,3.75
2022-09-06T03:55:03.754Z,3.80
2022-09-06T03:57:30.177Z,3.90
2022-09-06T03:59:56.683Z,3.65
2022-09-06T04:02:23.241Z,3.78
2022-09-06T04:04:49.728Z,3.45
2022-09-06T04:07:16.129Z,3.60
2022-09-06T04:09:42.621Z,3.75
2022-09-06T04:12:09.167Z,3.63
2022-09-06T04:14:35.572Z,3.63
2022-09-06T04:17:02.042Z,3.65
2022-09-06T04:19:28.519Z,4.18
2022-09-06T04:21:55.246Z,4.15
2022-09-06T04:24:21.659Z,4.25
2022-09-06T04:26:48.174Z,4.00
2022-09-06T04:29:14.608Z,3.72
2022-09-06T04:31:41.123Z,4.05
2022-09-06T04:34:07.763Z,3.60
2022-09-06T04:36:34.393Z,3.50
2022-09-06T04:39:00.810Z,3.95
2022-09-06T04:41:27.264Z,3.65
2022-09-06T04:43:54.032Z,4.00
2022-09-06T04:46:25.167Z,3.47
2022-09-06T04:48:53.605Z,3.92
2022-09-06T04:51:21.449Z,3.83
2022-09-06T04:53:48.362Z,4.30
2022-09-06T04:56:18.082Z,3.80
2022-09-06T04:58:46.508Z,4.30
2022-09-06T05:01:13.498Z,4.15
2022-09-06T05:03:40.069Z,5.43
2022-09-06T05:06:09.294Z,5.13
2022-09-06T05:08:42.335Z,4.50
2022-09-06T05:11:11.041Z,5.60
2022-09-06T05:13:37.773Z,4.97
2022-09-06T05:16:06.880Z,5.13
2022-09-06T05:18:33.630Z,5.13
2022-09-06T05:21:00.722Z,4.65
2022-09-06T05:23:28.035Z,4.97
2022-09-06T05:25:54.500Z,4.95
2022-09-06T05:28:21.490Z,4.57
2022-09-06T05:30:47.954Z,4.55
2022-09-06T05:33:20.202Z,4.70
2022-09-06T05:35:46.674Z,4.00
2022-09-06T05:38:13.094Z,4.57
2022-09-06T05:40:39.562Z,4.22
2022-09-06T05:43:06.174Z,4.47
2022-09-06T05:45:32.680Z,4.47
2022-09-06T05:47:59.193Z,4.13
2022-09-06T05:50:25.696Z,5.25
2022-09-06T05:52:53.950Z,5.55
2022-09-06T05:55:20.405Z,5.50
2022-09-06T05:57:46.804Z,5.22
2022-09-06T06:00:13.701Z,5.10
2022-09-06T06:02:40.413Z,4.80
2022-09-06T06:05:07.914Z,4.45
2022-09-06T06:07:34.630Z,4.35
2022-09-06T06:10:01.102Z,4.50
2022-09-06T06:12:27.525Z,4.55
2022-09-06T06:14:54.502Z,4.18
2022-09-06T06:17:20.993Z,4.10
2022-09-06T06:19:47.511Z,4.40
2022-09-06T06:22:14.006Z,4.00
2022-09-06T06:24:40.472Z,3.83
2022-09-06T06:27:07.531Z,4.32
2022-09-06T06:29:33.992Z,4.07
2022-09-06T06:32:00.484Z,3.92
2022-09-06T06:34:27.024Z,4.18
2022-09-06T06:36:53.457Z,3.80
2022-09-06T06:39:20.016Z,4.32
2022-09-06T06:41:47.813Z,3.67
2022-09-06T06:44:40.309Z,4.13
2022-09-06T06:47:07.091Z,4.10
2022-09-06T06:49:33.654Z,3.90
2022-09-06T06:52:00.160Z,4.10
2022-09-06T06:54:26.685Z,4.15
2022-09-06T06:56:53.098Z,4.20
2022-09-06T06:59:20.502Z,4.30
2022-09-06T07:01:47.056Z,4.35
2022-09-06T07:04:14.186Z,4.15
2022-09-06T07:12:29.465Z,4.07
2022-09-06T07:14:55.892Z,3.97
2022-09-06T07:17:22.310Z,4.07
2022-09-06T07:22:37.034Z,3.30
2022-09-06T07:25:05.042Z,3.20
2022-09-06T07:27:47.745Z,3.47
2022-09-06T07:30:15.323Z,3.33
2022-09-06T07:32:41.841Z,3.20
2022-09-06T07:35:08.887Z,3.00
2022-09-06T07:37:35.405Z,3.38
2022-09-06T07:40:03.180Z,3.50
2022-09-06T07:42:36.485Z,4.03
2022-09-06T07:45:04.547Z,3.65
2022-09-06T07:55:32.994Z,3.42
2022-09-06T07:57:59.441Z,3.58
2022-09-06T08:00:26.298Z,3.88
2022-09-06T08:02:52.886Z,3.65
2022-09-06T08:10:52.329Z,3.40
2022-09-06T08:13:18.784Z,3.28
2022-09-06T08:15:45.290Z,3.03
2022-09-06T08:18:11.973Z,2.90
2022-09-06T08:20:38.456Z,2.95
2022-09-06T08:23:12.402Z,2.58
2022-09-06T08:25:38.819Z,3.00
2022-09-06T08:28:05.316Z,3.08
2022-09-06T08:30:32.984Z,2.80
2022-09-06T08:32:59.727Z,3.00
2022-09-06T08:35:26.185Z,2.60
2022-09-06T08:37:52.857Z,3.03
2022-09-06T08:40:22.379Z,2.75
2022-09-06T08:42:48.878Z,3.00
2022-09-06T08:45:19.315Z,3.15
2022-09-06T08:47:45.795Z,2.65
2022-09-06T08:50:12.359Z,2.90
2022-09-06T08:53:17.893Z,3.08
2022-09-06T08:55:54.199Z,2.60
2022-09-06T08:58:35.746Z,2.80
2022-09-06T09:01:11.346Z,2.70
2022-09-06T09:03:39.884Z,2.90
2022-09-06T09:06:09.232Z,3.03
2022-09-06T09:08:47.982Z,2.80
2022-09-06T09:11:17.910Z,2.83
2022-09-06T09:13:55.625Z,2.78
2022-09-06T09:16:22.867Z,2.65
2022-09-06T09:18:53.666Z,2.50
2022-09-06T09:21:28.065Z,2.58
2022-09-06T09:24:01.982Z,2.58
2022-09-06T09:26:35.107Z,2.35
2022-09-06T09:29:03.874Z,3.10
2022-09-06T09:31:36.083Z,2.70
2022-09-06T09:34:04.862Z,2.70
2022-09-06T09:36:32.865Z,3.15
2022-09-06T09:39:00.002Z,2.78
2022-09-06T09:41:32.861Z,2.60
2022-09-06T09:44:05.104Z,2.58
2022-09-06T09:46:36.826Z,2.55
2022-09-06T09:49:11.171Z,2.70
2022-09-06T09:51:43.341Z,2.80
2022-09-06T09:54:29.465Z,3.00
2022-09-06T09:56:56.871Z,3.00
2022-09-06T09:59:37.930Z,2.50
2022-09-06T10:02:41.265Z,2.53
2022-09-06T10:05:13.588Z,2.58
2022-09-06T10:07:51.945Z,2.60
2022-09-06T10:10:33.398Z,2.38
2022-09-06T10:13:07.644Z,2.28
2022-09-06T10:15:40.031Z,2.05
2022-09-06T10:18:06.692Z,2.20
2022-09-06T10:20:56.423Z,2.40
2022-09-06T10:26:53.742Z,2.10
2022-09-06T10:29:34.781Z,1.90
2022-09-06T10:32:32.610Z,1.80
2022-09-06T10:35:13.096Z,2.20
2022-09-06T10:37:47.273Z,2.58
2022-09-06T10:40:30.409Z,2.55
2022-09-06T10:42:59.387Z,2.40
2022-09-06T10:45:59.590Z,2.22
2022-09-06T10:48:44.636Z,2.22
2022-09-06T10:51:21.787Z,1.95
2022-09-06T10:54:07.864Z,1.90
2022-09-06T10:56:49.973Z,2.40
2022-09-06T10:59:41.966Z,2.00
2022-09-06T11:02:42.927Z,2.03
2022-09-06T11:05:38.301Z,1.83
2022-09-06T11:11:08.045Z,1.60
2022-09-06T11:13:34.679Z,1.60
2022-09-06T11:16:27.085Z,1.52
2022-09-06T11:19:02.656Z,1.80
2022-09-06T11:21:48.350Z,2.00
2022-09-06T11:24:22.263Z,1.50
2022-09-06T11:27:13.633Z,1.90
2022-09-06T11:29:45.106Z,1.80
2022-09-06T11:32:50.396Z,1.92
2022-09-06T11:35:28.436Z,1.70
2022-09-06T11:38:05.961Z,2.33
2022-09-06T11:40:47.722Z,1.45
2022-09-06T11:43:38.768Z,1.83
2022-09-06T11:46:05.269Z,1.80
2022-09-06T11:48:36.419Z,1.88
2022-09-06T11:51:11.088Z,1.80
2022-09-06T11:54:06.214Z,1.85
2022-09-06T11:56:59.935Z,1.60
2022-09-06T11:59:34.173Z,1.80
2022-09-06T12:02:03.998Z,2.08
2022-09-06T12:05:00.449Z,2.38
2022-09-06T12:07:31.786Z,1.92
2022-09-06T12:10:01.976Z,2.00
2022-09-06T12:12:50.754Z,1.83
2022-09-06T12:15:30.184Z,1.92
2022-09-06T12:17:59.000Z,1.90
2022-09-06T12:20:47.668Z,2.05
2022-09-06T12:23:35.712Z,2.20
2022-09-06T12:26:04.519Z,2.03
2022-09-06T12:28:49.816Z,1.92
2022-09-06T12:31:36.699Z,2.10
2022-09-06T12:34:14.441Z,2.10
2022-09-06T12:36:57.396Z,2.05
2022-09-06T12:39:24.345Z,1.98
2022-09-06T12:41:56.110Z,2.10
2022-09-06T12:44:36.214Z,1.83
2022-09-06T12:47:06.840Z,2.17
2022-09-06T12:49:33.566Z,2.03
2022-09-06T12:52:29.494Z,2.45
2022-09-06T12:54:55.932Z,1.90
2022-09-06T12:57:24.900Z,2.13
2022-09-06T12:59:56.615Z,1.98
2022-09-06T13:02:26.196Z,2.00
2022-09-06T13:05:02.790Z,2.28
2022-09-06T13:07:31.622Z,2.05
2022-09-06T13:09:58.405Z,2.30
2022-09-06T13:12:33.370Z,2.00
2022-09-06T13:15:19.536Z,1.85
2022-09-06T13:17:46.414Z,2.05
2022-09-06T13:20:22.701Z,2.03
2022-09-06T13:22:51.300Z,2.05
2022-09-06T13:25:21.055Z,1.83
2022-09-06T13:27:50.883Z,2.03
2022-09-06T13:30:34.096Z,2.03
2022-09-06T13:33:02.134Z,2.00
2022-09-06T13:35:31.624Z,1.73
2022-09-06T13:38:43.070Z,1.90
2022-09-06T13:41:24.615Z,1.80
2022-09-06T13:44:04.225Z,1.80
2022-09-06T13:46:32.462Z,1.70
2022-09-06T13:48:59.271Z,1.80
2022-09-06T13:51:28.396Z,1.60
2022-09-06T13:54:12.854Z,1.90
2022-09-06T13:56:40.949Z,1.75
2022-09-06T13:59:11.686Z,1.70
2022-09-06T14:01:40.208Z,1.58
2022-09-06T14:04:07.262Z,1.90
2022-09-06T14:06:36.928Z,1.75
2022-09-06T14:09:07.455Z,1.70
2022-09-06T14:11:34.870Z,1.50
2022-09-06T14:14:01.309Z,1.50
2022-09-06T14:16:27.734Z,1.60
2022-09-06T14:18:54.266Z,1.58
2022-09-06T14:21:20.690Z,1.55
2022-09-06T14:23:51.367Z,1.40
2022-09-06T14:26:19.036Z,1.70
2022-09-06T14:28:45.656Z,1.40
2022-09-06T14:31:15.209Z,1.70
2022-09-06T14:33:42.125Z,1.30
2022-09-06T14:36:10.579Z,1.60
2022-09-06T14:38:38.358Z,1.58
2022-09-06T14:41:05.548Z,1.50
2022-09-06T14:43:32.798Z,1.60
2022-09-06T14:46:14.199Z,1.70
2022-09-06T14:48:42.759Z,1.48
2022-09-06T14:51:14.221Z,1.40
2022-09-06T14:53:42.319Z,1.40
2022-09-06T14:56:10.173Z,1.48
2022-09-06T14:58:38.381Z,1.30
2022-09-06T15:01:13.100Z,1.38
2022-09-06T15:03:48.821Z,1.65
2022-09-06T15:06:16.353Z,1.90
2022-09-06T15:08:43.238Z,1.52
2022-09-06T15:11:10.041Z,1.90
2022-09-06T15:13:37.486Z,2.05
2022-09-06T15:16:05.815Z,2.13
2022-09-06T15:18:33.189Z,2.10
2022-09-06T15:21:09.698Z,2.10
2022-09-06T15:23:36.720Z,1.95
2022-09-06T15:26:03.428Z,2.00
2022-09-06T15:28:29.833Z,2.20
2022-09-06T15:30:56.300Z,1.83
2022-09-06T15:33:22.892Z,2.15
2022-09-06T15:35:57.206Z,2.15
2022-09-06T15:38:23.898Z,2.10
2022-09-06T15:40:50.816Z,1.90
2022-09-06T15:43:17.315Z,2.00
2022-09-06T15:45:49.247Z,2.08
2022-09-06T15:48:17.377Z,1.90
2022-09-06T15:50:51.393Z,1.95
2022-09-06T15:53:19.625Z,2.20
2022-09-06T15:56:12.380Z,2.25
2022-09-06T15:58:39.080Z,2.00
2022-09-06T16:01:09.272Z,2.00
2022-09-06T16:03:38.566Z,2.00
2022-09-06T16:08:55.169Z,2.30
2022-09-06T16:11:21.741Z,2.60
2022-09-06T16:13:48.877Z,2.30
2022-09-06T16:16:16.682Z,2.05
2022-09-06T16:18:46.388Z,2.05
2022-09-06T16:21:23.769Z,2.00
2022-09-06T16:23:53.495Z,1.90
2022-09-06T16:26:21.748Z,2.17
2022-09-06T16:28:50.231Z,1.95
2022-09-06T16:31:17.891Z,2.10
2022-09-06T16:33:45.698Z,2.08
2022-09-06T16:36:12.896Z,2.10
2022-09-06T16:38:40.050Z,2.00
2022-09-06T16:41:14.495Z,2.42
2022-09-06T16:43:41.301Z,2.13
2022-09-06T16:46:08.267Z,2.08
2022-09-06T16:48:34.944Z,2.03
2022-09-06T16:51:15.701Z,2.10
2022-09-06T16:53:44.300Z,2.20
2022-09-06T16:56:12.519Z,2.00
2022-09-06T16:58:41.991Z,2.03
2022-09-06T17:01:10.013Z,2.22
2022-09-06T17:03:37.436Z,2.30
2022-09-06T17:06:04.337Z,1.60
2022-09-06T17:08:36.351Z,1.92
2022-09-06T17:11:05.320Z,2.00
2022-09-06T17:13:32.098Z,2.17
2022-09-06T17:16:21.915Z,1.90
2022-09-06T17:18:49.420Z,2.08
2022-09-06T17:21:15.851Z,2.22
2022-09-06T17:23:42.381Z,2.03
2022-09-06T17:26:09.075Z,2.00
2022-09-06T17:28:37.181Z,2.00
2022-09-06T17:31:05.370Z,2.05
2022-09-06T17:33:33.014Z,2.20
2022-09-06T17:36:12.293Z,2.20
2022-09-06T17:38:40.027Z,2.45
2022-09-06T17:41:07.160Z,1.92
2022-09-06T17:43:36.263Z,2.15
2022-09-06T17:46:03.827Z,2.20
2022-09-06T17:48:30.415Z,2.20
2022-09-06T17:51:05.021Z,2.40
2022-09-06T17:53:31.835Z,2.35
2022-09-06T17:55:58.462Z,2.20
2022-09-06T17:58:24.970Z,2.38
2022-09-06T18:00:51.567Z,2.58
2022-09-06T18:03:18.038Z,2.40
2022-09-06T18:05:45.183Z,2.30
2022-09-06T18:08:11.753Z,2.47
2022-09-06T18:10:38.647Z,2.45
2022-09-06T18:13:06.121Z,2.65
2022-09-06T18:15:37.974Z,2.42
2022-09-06T18:18:04.662Z,2.30
2022-09-06T18:20:31.478Z,2.65
2022-09-06T18:22:58.311Z,2.65
2022-09-06T18:25:24.885Z,2.13
2022-09-06T18:27:51.368Z,1.90
2022-09-06T18:30:17.925Z,2.70
2022-09-06T18:32:44.762Z,2.75
2022-09-06T18:35:11.471Z,2.60
2022-09-06T18:37:38.546Z,2.90
2022-09-06T18:40:06.071Z,2.60
2022-09-06T18:42:33.340Z,3.00
2022-09-06T18:44:59.816Z,2.83
2022-09-06T18:47:26.278Z,3.20
2022-09-06T18:49:52.713Z,2.60
2022-09-06T18:52:20.775Z,2.80
2022-09-06T18:54:48.913Z,2.90
2022-09-06T18:57:16.405Z,3.05
2022-09-06T18:59:43.093Z,2.88
2022-09-06T19:02:09.687Z,2.90
2022-09-06T19:04:36.334Z,2.60
2022-09-06T19:07:03.781Z,2.70
2022-09-06T19:09:30.299Z,2.92
2022-09-06T19:11:56.765Z,3.05
2022-09-06T19:14:23.339Z,2.95
2022-09-06T19:16:51.539Z,2.95
2022-09-06T19:19:18.178Z,2.47
2022-09-06T19:21:44.643Z,2.63
2022-09-06T19:24:12.406Z,2.83
2022-09-06T19:26:42.039Z,3.03
2022-09-06T19:29:13.101Z,2.40
2022-09-06T19:31:39.564Z,2.25
2022-09-06T19:34:06.552Z,2.58
2022-09-06T19:36:33.752Z,2.80
2022-09-06T19:39:06.270Z,3.38
2022-09-06T19:41:36.344Z,2.85
2022-09-06T19:44:05.614Z,2.70
2022-09-06T19:46:32.215Z,2.90
2022-09-06T19:48:58.769Z,2.92
2022-09-06T19:51:25.667Z,3.08
2022-09-06T19:53:54.360Z,3.10
2022-09-06T19:56:24.459Z,2.90
2022-09-06T19:58:58.567Z,2.88
2022-09-06T20:01:29.168Z,2.60
2022-09-06T20:03:55.927Z,2.63
2022-09-06T20:06:22.907Z,2.60
2022-09-06T20:08:54.218Z,3.10
2022-09-06T20:11:22.861Z,2.90
2022-09-06T20:13:49.404Z,2.85
2022-09-06T20:16:18.545Z,3.25
2022-09-06T20:18:46.872Z,2.80
2022-09-06T20:21:13.892Z,2.97
2022-09-06T20:23:40.862Z,2.95
2022-09-06T20:26:09.643Z,3.10
2022-09-06T20:28:37.050Z,2.95
2022-09-06T20:31:09.110Z,2.80
2022-09-06T20:33:36.365Z,2.65
2022-09-06T20:36:05.807Z,2.97
2022-09-06T20:38:35.214Z,3.25
2022-09-06T20:41:05.025Z,2.80
2022-09-06T20:43:34.377Z,2.78
2022-09-06T20:46:04.152Z,3.15
2022-09-06T20:48:32.732Z,3.15
2022-09-06T20:51:02.542Z,3.10
2022-09-06T20:53:33.573Z,3.15
2022-09-06T20:56:06.230Z,2.60
2022-09-06T20:58:33.494Z,3.03
2022-09-06T21:01:05.299Z,3.08
2022-09-06T21:03:31.842Z,3.22
2022-09-06T21:05:58.307Z,2.95
2022-09-06T21:08:26.050Z,2.90
2022-09-06T21:10:59.437Z,2.70
2022-09-06T21:13:28.230Z,3.08
2022-09-06T21:15:55.777Z,3.40
2022-09-06T21:18:23.365Z,3.10
2022-09-06T21:20:57.921Z,3.22
2022-09-06T21:23:25.038Z,2.83
2022-09-06T21:25:55.558Z,3.17
2022-09-06T21:28:22.530Z,3.20
2022-09-06T21:31:00.398Z,3.38
2022-09-06T21:33:28.871Z,3.00
2022-09-06T21:36:01.153Z,2.90
2022-09-06T21:38:27.660Z,3.20
2022-09-06T21:40:54.112Z,3.50
2022-09-06T21:43:20.515Z,3.25
2022-09-06T21:45:47.075Z,3.13
2022-09-06T21:48:18.108Z,3.13
2022-09-06T21:50:46.817Z,3.28
2022-09-06T21:53:13.915Z,3.45
2022-09-06T21:55:40.910Z,3.20
2022-09-06T21:58:07.826Z,3.20
2022-09-06T22:00:34.935Z,3.47
2022-09-06T22:03:01.848Z,3.80
2022-09-06T22:05:28.668Z,3.53
2022-09-06T22:07:55.170Z,3.50
2022-09-06T22:10:23.641Z,3.08
2022-09-06T22:12:50.612Z,3.10
2022-09-06T22:15:18.899Z,3.17
2022-09-06T22:17:45.391Z,3.70
2022-09-06T22:20:12.181Z,3.28
2022-09-06T22:22:38.813Z,3.25
2022-09-06T22:25:05.895Z,3.38
2022-09-06T22:27:32.338Z,3.45
2022-09-06T22:29:58.777Z,3.38
2022-09-06T22:32:25.335Z,3.10
2022-09-06T22:34:51.874Z,3.33
2022-09-06T22:37:18.290Z,2.97
2022-09-06T22:39:44.864Z,3.50
2022-09-06T22:42:11.396Z,3.35
2022-09-06T22:44:37.918Z,3.33
2022-09-06T22:47:05.163Z,3.20
2022-09-06T22:49:31.587Z,3.00
2022-09-06T22:51:58.248Z,3.30
2022-09-06T22:54:24.711Z,3.15
2022-09-06T22:56:51.209Z,3.40
2022-09-06T22:59:17.791Z,3.10
2022-09-06T23:01:44.371Z,3.10
2022-09-06T23:04:11.120Z,3.22
2022-09-06T23:06:37.694Z,3.00
2022-09-06T23:09:04.589Z,2.97
2022-09-06T23:11:32.554Z,3.20
2022-09-06T23:14:00.618Z,3.00
2022-09-06T23:16:28.195Z,3.05
2022-09-06T23:18:55.318Z,3.63
2022-09-06T23:21:24.433Z,3.50
2022-09-06T23:23:52.767Z,3.58
2022-09-06T23:26:22.206Z,3.67
2022-09-06T23:28:56.425Z,3.70
2022-09-06T23:31:25.496Z,3.78
2022-09-06T23:33:59.759Z,3.85
2022-09-06T23:36:26.969Z,3.40
2022-09-06T23:38:53.545Z,3.60
2022-09-06T23:41:20.266Z,3.42
2022-09-06T23:43:46.709Z,3.55
2022-09-06T23:46:14.856Z,3.95
2022-09-06T23:48:42.898Z,3.70
2022-09-06T23:51:09.600Z,3.78
2022-09-06T23:53:36.529Z,3.63
2022-09-06T23:56:04.066Z,3.30
2022-09-06T23:58:31.190Z,3.15
